Time;durP1;ratioP1;P1;durP2;ratioP2;P2;SDS_P1;SDS_P2;PMS_P1;PMS_P2;Temp;Humidity;BMP_temperature;BMP_pressure;BME280_temperature;BME280_humidity;BME280_pressure;Samples;Min_cycle;Max_cycle;Signal;HPM_P1;HPM_P2
2023/03/10 00:02:19;;;;;;;;;;;10.90;99.90;;;;;;4990578;28;19972;-63
2023/03/10 00:04:44;;;;;;;;;;;10.90;99.90;;;;;;4989792;28;19941;-63
2023/03/10 00:07:10;;;;;;;;;;;10.90;99.90;;;;;;5004483;28;20008;-64
2023/03/10 00:09:35;;;;;;;;;;;10.90;99.90;;;;;;4986489;28;19954;-63
2023/03/10 00:12:00;;;;;;;;;;;10.90;99.90;;;;;;4987609;28;19914;-63
2023/03/10 00:14:26;;;;;;;;;;;10.90;99.90;;;;;;4991193;28;19914;-64
2023/03/10 00:16:51;;;;;;;;;;;10.90;99.90;;;;;;4991164;28;19921;-65
2023/03/10 00:19:17;;;;;;;;;;;10.90;99.90;;;;;;4985312;28;19924;-65
2023/03/10 00:21:44;;;;;;;;;;;10.80;99.90;;;;;;4990003;28;19926;-63
2023/03/10 00:24:10;;;;;;;;;;;10.80;99.90;;;;;;4988324;28;19921;-63
2023/03/10 00:26:37;;;;;;;;;;;10.80;99.90;;;;;;4991117;28;19918;-65
2023/03/10 00:29:03;;;;;;;;;;;10.80;99.90;;;;;;4992044;28;20008;-64
2023/03/10 00:31:30;;;;;;;;;;;10.90;99.90;;;;;;4988994;28;19977;-64
2023/03/10 00:33:56;;;;;;;;;;;11.00;99.90;;;;;;4988351;28;19918;-64
2023/03/10 00:36:23;;;;;;;;;;;11.00;99.90;;;;;;4990433;28;20057;-63
2023/03/10 00:38:50;;;;;;;;;;;11.00;99.90;;;;;;4992169;28;20269;-65
2023/03/10 00:41:17;;;;;;;;;;;11.00;99.90;;;;;;4990334;28;20135;-66
2023/03/10 00:43:43;;;;;;;;;;;11.00;99.90;;;;;;4989252;28;20072;-64
2023/03/10 00:46:08;;;;;;;;;;;11.20;99.90;;;;;;4989388;28;20437;-63
2023/03/10 00:48:34;;;;;;;;;;;11.20;99.90;;;;;;4990704;28;19944;-63
2023/03/10 00:51:00;;;;;;;;;;;11.20;99.90;;;;;;4990840;28;19966;-65
2023/03/10 00:53:26;;;;;;;;;;;11.20;99.90;;;;;;4989787;28;19956;-63
2023/03/10 00:55:58;;;;;;;;;;;11.40;99.90;;;;;;4997610;28;20413;-65
2023/03/10 00:58:23;;;;;;;;;;;11.30;99.90;;;;;;4992802;28;19917;-62
2023/03/10 01:00:48;;;;;;;;;;;11.20;99.90;;;;;;4975088;28;20279;-65
2023/03/10 01:03:14;;;;;;;;;;;11.20;99.90;;;;;;4990585;28;19918;-64
2023/03/10 01:05:39;;;;;;;;;;;11.10;99.90;;;;;;4988766;28;19960;-65
2023/03/10 01:08:05;;;;;;;;;;;11.00;99.90;;;;;;4991577;28;19921;-65
2023/03/10 01:10:30;;;;;;;;;;;11.00;99.90;;;;;;4993325;28;20044;-65
2023/03/10 01:12:56;;;;;;;;;;;11.00;99.90;;;;;;4986815;28;19976;-65
2023/03/10 01:15:21;;;;;;;;;;;11.00;99.90;;;;;;4989204;28;19979;-66
2023/03/10 01:17:47;;;;;;;;;;;11.10;99.90;;;;;;4988689;28;19920;-65
2023/03/10 01:20:14;;;;;;;;;;;11.00;99.90;;;;;;4992412;28;20013;-65
2023/03/10 01:22:40;;;;;;;;;;;10.90;99.90;;;;;;4990727;28;19918;-66
2023/03/10 01:25:05;;;;;;;;;;;10.90;99.90;;;;;;4989837;28;19980;-65
2023/03/10 01:27:31;;;;;;;;;;;10.90;99.90;;;;;;4991483;28;20335;-65
2023/03/10 01:29:56;;;;;;;;;;;10.90;99.90;;;;;;4993192;28;19921;-65
2023/03/10 01:32:22;;;;;;;;;;;10.90;99.90;;;;;;4988036;28;19970;-65
2023/03/10 01:34:47;;;;;;;;;;;11.00;99.90;;;;;;4993695;28;20363;-66
2023/03/10 01:37:13;;;;;;;;;;;10.90;99.90;;;;;;4990463;28;19926;-65
2023/03/10 01:39:38;;;;;;;;;;;11.00;99.90;;;;;;4990415;28;19917;-65
2023/03/10 01:42:04;;;;;;;;;;;11.00;99.90;;;;;;4996661;28;20012;-66
2023/03/10 01:44:29;;;;;;;;;;;11.10;99.90;;;;;;4991726;28;19914;-67
2023/03/10 01:46:55;;;;;;;;;;;11.10;99.90;;;;;;4990931;28;19957;-65
2023/03/10 01:49:26;;;;;;;;;;;11.10;99.90;;;;;;4992294;28;20354;-65
2023/03/10 01:52:03;;;;;;;;;;;11.10;99.90;;;;;;4991858;28;19964;-65
2023/03/10 01:54:32;;;;;;;;;;;11.10;99.90;;;;;;4993584;28;21338;-65
2023/03/10 01:56:58;;;;;;;;;;;11.10;99.90;;;;;;4991047;28;19913;-65
2023/03/10 01:59:24;;;;;;;;;;;11.00;99.90;;;;;;4990967;28;19921;-65
2023/03/10 02:01:50;;;;;;;;;;;11.00;99.90;;;;;;4988118;28;19961;-66
2023/03/10 02:04:22;;;;;;;;;;;11.10;99.90;;;;;;4989088;28;19917;-65
2023/03/10 02:06:49;;;;;;;;;;;11.00;99.90;;;;;;4986143;28;19921;-64
2023/03/10 02:09:17;;;;;;;;;;;11.00;99.90;;;;;;4988362;28;19914;-65
2023/03/10 02:11:43;;;;;;;;;;;10.90;99.90;;;;;;4985196;28;19913;-66
2023/03/10 02:14:09;;;;;;;;;;;10.90;99.90;;;;;;4993686;28;19921;-65
2023/03/10 02:16:34;;;;;;;;;;;11.10;99.90;;;;;;4993905;28;19934;-67
2023/03/10 02:19:01;;;;;;;;;;;11.10;99.90;;;;;;4987645;28;20321;-64
2023/03/10 02:21:39;;;;;;;;;;;11.10;99.90;;;;;;4989364;28;19997;-66
2023/03/10 02:24:05;;;;;;;;;;;11.20;99.90;;;;;;4988416;28;20015;-65
2023/03/10 02:26:39;;;;;;;;;;;11.10;99.90;;;;;;4987595;28;19981;-66
2023/03/10 02:29:07;;;;;;;;;;;11.10;99.90;;;;;;4992110;28;20385;-65
2023/03/10 02:31:32;;;;;;;;;;;11.20;99.90;;;;;;4992110;28;19973;-64
2023/03/10 02:33:58;;;;;;;;;;;11.20;99.90;;;;;;4988845;28;20008;-65
2023/03/10 02:36:23;;;;;;;;;;;11.20;99.90;;;;;;4993869;28;19914;-66
2023/03/10 02:38:49;;;;;;;;;;;11.00;99.90;;;;;;4988279;28;19914;-64
2023/03/10 02:41:32;;;;;;;;;;;10.90;99.90;;;;;;4990956;28;19920;-66
2023/03/10 02:43:59;;;;;;;;;;;10.90;99.90;;;;;;4986821;28;19941;-65
2023/03/10 02:46:25;;;;;;;;;;;10.90;99.90;;;;;;4989109;28;19933;-67
2023/03/10 02:48:50;;;;;;;;;;;10.80;99.90;;;;;;4989166;28;19917;-67
2023/03/10 02:51:18;;;;;;;;;;;10.80;99.90;;;;;;4990437;28;19952;-66
2023/03/10 02:53:43;;;;;;;;;;;10.70;99.90;;;;;;4989210;28;20384;-65
2023/03/10 02:56:09;;;;;;;;;;;10.70;99.90;;;;;;4992336;28;19925;-66
2023/03/10 02:58:34;;;;;;;;;;;10.70;99.90;;;;;;4992778;28;20335;-65
2023/03/10 03:01:00;;;;;;;;;;;10.70;99.90;;;;;;4988055;28;19913;-65
2023/03/10 03:03:25;;;;;;;;;;;10.70;99.90;;;;;;4991655;28;20004;-68
2023/03/10 03:05:51;;;;;;;;;;;10.60;99.90;;;;;;4986762;28;19941;-66
2023/03/10 03:08:17;;;;;;;;;;;10.60;99.90;;;;;;4989878;28;19914;-65
2023/03/10 03:10:43;;;;;;;;;;;10.60;99.90;;;;;;4989719;28;20020;-65
2023/03/10 03:13:08;;;;;;;;;;;10.60;99.90;;;;;;4988562;28;20427;-66
2023/03/10 03:15:34;;;;;;;;;;;10.50;99.90;;;;;;4986910;28;19917;-67
2023/03/10 03:18:00;;;;;;;;;;;10.50;99.90;;;;;;4986057;28;20319;-65
2023/03/10 03:20:26;;;;;;;;;;;10.60;99.90;;;;;;4989453;28;20269;-65
2023/03/10 03:22:52;;;;;;;;;;;10.50;99.90;;;;;;4972024;28;20013;-65
2023/03/10 03:25:18;;;;;;;;;;;10.40;99.90;;;;;;4984227;28;20001;-65
2023/03/10 03:27:44;;;;;;;;;;;10.40;99.90;;;;;;4976948;28;19918;-65
2023/03/10 03:30:11;;;;;;;;;;;10.30;99.90;;;;;;4984001;28;19922;-66
2023/03/10 03:32:37;;;;;;;;;;;10.30;99.90;;;;;;4989989;28;19917;-66
2023/03/10 03:35:03;;;;;;;;;;;10.30;99.90;;;;;;4989105;28;19921;-65
2023/03/10 03:37:29;;;;;;;;;;;10.30;99.90;;;;;;4988886;28;20343;-65
2023/03/10 03:39:54;;;;;;;;;;;10.30;99.90;;;;;;4969611;28;19981;-65
2023/03/10 03:42:20;;;;;;;;;;;10.30;99.90;;;;;;4990159;28;20399;-65
2023/03/10 03:44:45;;;;;;;;;;;10.30;99.90;;;;;;4990629;28;20398;-68
2023/03/10 03:47:11;;;;;;;;;;;10.20;99.90;;;;;;4991466;28;20455;-66
2023/03/10 03:49:37;;;;;;;;;;;10.30;99.90;;;;;;4988471;28;19961;-66
2023/03/10 03:52:03;;;;;;;;;;;10.30;99.90;;;;;;4987871;28;19913;-66
2023/03/10 03:54:28;;;;;;;;;;;10.30;99.90;;;;;;4992379;28;20335;-65
2023/03/10 03:56:53;;;;;;;;;;;10.40;99.90;;;;;;4988926;28;20022;-66
2023/03/10 03:59:19;;;;;;;;;;;10.30;99.90;;;;;;4988861;28;19914;-67
2023/03/10 04:01:44;;;;;;;;;;;10.30;99.90;;;;;;4988593;28;19918;-67
2023/03/10 04:04:10;;;;;;;;;;;10.30;99.90;;;;;;4987419;28;19914;-67
2023/03/10 04:06:35;;;;;;;;;;;10.20;99.90;;;;;;4970056;28;19922;-67
2023/03/10 04:09:01;;;;;;;;;;;10.10;99.90;;;;;;4986616;28;20009;-65
2023/03/10 04:11:26;;;;;;;;;;;10.10;99.90;;;;;;4968477;28;20364;-66
2023/03/10 04:13:51;;;;;;;;;;;10.10;99.90;;;;;;4988176;28;19922;-66
2023/03/10 04:16:17;;;;;;;;;;;10.00;99.90;;;;;;4986271;28;19914;-66
2023/03/10 04:18:43;;;;;;;;;;;10.00;99.90;;;;;;4993495;28;19914;-64
2023/03/10 04:21:09;;;;;;;;;;;9.90;99.90;;;;;;4991204;28;19922;-66
2023/03/10 04:23:34;;;;;;;;;;;9.80;99.90;;;;;;4986450;28;20292;-66
2023/03/10 04:26:00;;;;;;;;;;;9.80;99.90;;;;;;4985527;28;19918;-67
2023/03/10 04:28:25;;;;;;;;;;;9.80;99.90;;;;;;4985499;28;20068;-65
2023/03/10 04:30:51;;;;;;;;;;;9.80;99.90;;;;;;4986351;28;19910;-66
2023/03/10 04:33:16;;;;;;;;;;;9.70;99.90;;;;;;4988520;28;20147;-66
2023/03/10 04:35:42;;;;;;;;;;;9.70;99.90;;;;;;4969524;28;19920;-65
2023/03/10 04:38:08;;;;;;;;;;;9.70;99.90;;;;;;4985594;28;19914;-65
2023/03/10 04:40:34;;;;;;;;;;;9.70;99.90;;;;;;4986905;28;19937;-66
2023/03/10 04:42:59;;;;;;;;;;;9.60;99.90;;;;;;4986917;28;19944;-66
2023/03/10 04:45:25;;;;;;;;;;;9.50;99.90;;;;;;4990461;28;19944;-66
2023/03/10 04:47:50;;;;;;;;;;;9.50;99.90;;;;;;4989832;28;19922;-65
2023/03/10 04:50:16;;;;;;;;;;;9.40;99.90;;;;;;4989690;28;19925;-65
2023/03/10 04:52:43;;;;;;;;;;;9.40;99.90;;;;;;4992989;28;19992;-65
2023/03/10 04:55:09;;;;;;;;;;;9.20;99.90;;;;;;4988279;28;20019;-66
2023/03/10 04:57:34;;;;;;;;;;;9.20;99.90;;;;;;4991127;28;20117;-65
2023/03/10 04:59:59;;;;;;;;;;;9.30;99.90;;;;;;4990872;28;19969;-66
2023/03/10 05:02:25;;;;;;;;;;;9.30;99.90;;;;;;4990024;28;19922;-64
2023/03/10 05:04:50;;;;;;;;;;;9.30;99.90;;;;;;4994620;28;19914;-65
2023/03/10 05:07:16;;;;;;;;;;;9.30;99.90;;;;;;4987268;28;20269;-67
2023/03/10 05:09:41;;;;;;;;;;;9.30;99.90;;;;;;4971660;28;19926;-65
2023/03/10 05:12:07;;;;;;;;;;;9.30;99.90;;;;;;4997057;28;19963;-64
2023/03/10 05:14:32;;;;;;;;;;;9.30;99.90;;;;;;4988776;28;19918;-65
2023/03/10 05:16:58;;;;;;;;;;;9.30;99.90;;;;;;4990159;28;19940;-66
2023/03/10 05:19:23;;;;;;;;;;;9.40;99.90;;;;;;4989926;28;19914;-66
2023/03/10 05:21:49;;;;;;;;;;;9.30;99.90;;;;;;4996373;28;19999;-66
2023/03/10 05:24:14;;;;;;;;;;;9.40;99.90;;;;;;4988394;28;19917;-67
2023/03/10 05:26:40;;;;;;;;;;;9.40;99.90;;;;;;4991307;28;20022;-66
2023/03/10 05:29:06;;;;;;;;;;;9.40;99.90;;;;;;4990644;28;20351;-65
2023/03/10 05:31:31;;;;;;;;;;;9.50;99.90;;;;;;4971464;28;19924;-67
2023/03/10 05:33:57;;;;;;;;;;;9.50;99.90;;;;;;4990834;28;19922;-64
2023/03/10 05:36:23;;;;;;;;;;;9.50;99.90;;;;;;4987252;28;19921;-64
2023/03/10 05:38:48;;;;;;;;;;;9.40;99.90;;;;;;4969612;28;19942;-66
2023/03/10 05:41:14;;;;;;;;;;;9.50;99.90;;;;;;4984968;28;20218;-64
2023/03/10 05:43:40;;;;;;;;;;;9.40;99.90;;;;;;4986640;28;19914;-66
2023/03/10 05:46:06;;;;;;;;;;;9.30;99.90;;;;;;4988823;28;20009;-66
2023/03/10 05:48:32;;;;;;;;;;;9.30;99.90;;;;;;4989198;28;19914;-65
2023/03/10 05:51:02;;;;;;;;;;;9.30;99.90;;;;;;4989345;28;19918;-65
2023/03/10 05:53:28;;;;;;;;;;;9.30;99.90;;;;;;4986474;28;19909;-67
2023/03/10 05:55:54;;;;;;;;;;;9.30;99.90;;;;;;4966528;28;20450;-66
2023/03/10 05:58:19;;;;;;;;;;;9.30;99.90;;;;;;4988703;28;20013;-65
2023/03/10 06:00:45;;;;;;;;;;;9.40;99.90;;;;;;4984053;28;20361;-66
2023/03/10 06:03:10;;;;;;;;;;;9.40;99.90;;;;;;4988637;28;20367;-66
2023/03/10 06:05:36;;;;;;;;;;;9.40;99.90;;;;;;4987942;28;19914;-65
2023/03/10 06:08:01;;;;;;;;;;;9.40;99.90;;;;;;4984567;28;19918;-66
2023/03/10 06:10:27;;;;;;;;;;;9.40;99.90;;;;;;4990599;28;19945;-63
2023/03/10 06:12:54;;;;;;;;;;;9.50;99.90;;;;;;4985576;28;19924;-63
2023/03/10 06:15:19;;;;;;;;;;;9.50;99.90;;;;;;4988145;28;19913;-63
2023/03/10 06:17:45;;;;;;;;;;;9.50;99.90;;;;;;4997549;28;19914;-63
2023/03/10 06:20:11;;;;;;;;;;;9.50;99.90;;;;;;4990492;28;19950;-63
2023/03/10 06:22:36;;;;;;;;;;;9.50;99.90;;;;;;4986256;28;19932;-62
2023/03/10 06:25:02;;;;;;;;;;;9.50;99.90;;;;;;4989104;28;19918;-61
2023/03/10 06:27:28;;;;;;;;;;;9.50;99.90;;;;;;4987609;28;19914;-64
2023/03/10 06:29:53;;;;;;;;;;;9.50;99.90;;;;;;4971361;28;19920;-64
2023/03/10 06:32:19;;;;;;;;;;;9.50;99.90;;;;;;4989159;28;19914;-62
2023/03/10 06:34:44;;;;;;;;;;;9.50;99.90;;;;;;4989865;28;19975;-62
2023/03/10 06:37:10;;;;;;;;;;;9.50;99.90;;;;;;4991495;28;19930;-63
2023/03/10 06:39:38;;;;;;;;;;;9.50;99.90;;;;;;4992747;28;19918;-62
2023/03/10 06:42:04;;;;;;;;;;;9.60;99.90;;;;;;4996879;28;20287;-62
2023/03/10 06:44:30;;;;;;;;;;;9.60;99.90;;;;;;4991976;28;19920;-62
2023/03/10 06:46:55;;;;;;;;;;;9.60;99.90;;;;;;4992565;28;19914;-63
2023/03/10 06:49:21;;;;;;;;;;;9.60;99.90;;;;;;4992273;28;19913;-64
2023/03/10 06:51:46;;;;;;;;;;;9.60;99.90;;;;;;4993239;28;19910;-64
2023/03/10 06:54:12;;;;;;;;;;;9.60;99.90;;;;;;4992047;28;20000;-63
2023/03/10 06:56:37;;;;;;;;;;;9.60;99.90;;;;;;4992609;28;19910;-62
2023/03/10 06:59:03;;;;;;;;;;;9.70;99.90;;;;;;4992189;28;19910;-62
2023/03/10 07:01:30;;;;;;;;;;;9.70;99.90;;;;;;4981743;28;19914;-63
2023/03/10 07:03:56;;;;;;;;;;;9.70;99.90;;;;;;4991827;28;19980;-62
2023/03/10 07:06:22;;;;;;;;;;;9.70;99.90;;;;;;4993159;28;19914;-62
2023/03/10 07:08:47;;;;;;;;;;;9.80;99.90;;;;;;4992160;28;19917;-63
2023/03/10 07:11:13;;;;;;;;;;;9.70;99.90;;;;;;4992787;28;19917;-63
2023/03/10 07:13:38;;;;;;;;;;;9.70;99.90;;;;;;4996512;28;19918;-63
2023/03/10 07:16:04;;;;;;;;;;;9.70;99.90;;;;;;4992411;28;19909;-63
2023/03/10 07:18:30;;;;;;;;;;;9.70;99.90;;;;;;4992066;28;19916;-63
2023/03/10 07:20:55;;;;;;;;;;;9.70;99.90;;;;;;4991418;28;19924;-62
2023/03/10 07:23:21;;;;;;;;;;;9.70;99.90;;;;;;4992036;28;19921;-63
2023/03/10 07:25:50;;;;;;;;;;;9.70;99.90;;;;;;4991900;28;19918;-62
2023/03/10 07:28:16;;;;;;;;;;;9.70;99.90;;;;;;4989789;28;20409;-63
2023/03/10 07:30:41;;;;;;;;;;;9.70;99.90;;;;;;4991902;28;19910;-63
2023/03/10 07:33:07;;;;;;;;;;;9.70;99.90;;;;;;4991467;28;19937;-62
2023/03/10 07:35:32;;;;;;;;;;;9.70;99.90;;;;;;4992890;28;20431;-62
2023/03/10 07:37:58;;;;;;;;;;;9.70;99.90;;;;;;4992030;28;19918;-63
2023/03/10 07:40:23;;;;;;;;;;;9.70;99.90;;;;;;4991638;28;19947;-62
2023/03/10 07:42:53;;;;;;;;;;;9.60;99.90;;;;;;4991165;28;19945;-63
2023/03/10 07:45:19;;;;;;;;;;;9.70;99.90;;;;;;4989106;28;19954;-62
2023/03/10 07:47:44;;;;;;;;;;;9.70;99.90;;;;;;4991157;28;19949;-63
2023/03/10 07:50:10;;;;;;;;;;;9.70;99.90;;;;;;4990297;28;19992;-62
2023/03/10 07:52:36;;;;;;;;;;;9.60;99.90;;;;;;4999116;28;19971;-64
2023/03/10 07:55:01;;;;;;;;;;;9.50;99.90;;;;;;4992658;28;20364;-63
2023/03/10 07:57:27;;;;;;;;;;;9.60;99.90;;;;;;4991965;28;19910;-62
2023/03/10 07:59:53;;;;;;;;;;;9.50;99.90;;;;;;4991115;28;20442;-63
2023/03/10 08:02:18;;;;;;;;;;;9.50;99.90;;;;;;4991431;28;19914;-63
2023/03/10 08:04:44;;;;;;;;;;;9.50;99.90;;;;;;4991391;28;19955;-63
2023/03/10 08:07:09;;;;;;;;;;;9.50;99.90;;;;;;4990142;28;19960;-64
2023/03/10 08:09:35;;;;;;;;;;;9.50;99.90;;;;;;4991633;28;20292;-63
2023/03/10 08:12:01;;;;;;;;;;;9.50;99.90;;;;;;4991354;28;19910;-63
2023/03/10 08:14:27;;;;;;;;;;;9.50;99.90;;;;;;4990324;28;20413;-63
2023/03/10 08:16:55;;;;;;;;;;;9.70;99.90;;;;;;4991377;28;19921;-63
2023/03/10 08:19:21;;;;;;;;;;;9.80;99.90;;;;;;4990537;28;20359;-62
2023/03/10 08:21:47;;;;;;;;;;;10.00;99.90;;;;;;4993569;28;19925;-62
2023/03/10 08:24:12;;;;;;;;;;;10.20;99.90;;;;;;4994842;28;20491;-62
2023/03/10 08:26:38;;;;;;;;;;;10.40;99.90;;;;;;4992532;28;19921;-62
2023/03/10 08:29:03;;;;;;;;;;;10.60;99.90;;;;;;4993432;28;20372;-63
2023/03/10 08:31:29;;;;;;;;;;;10.60;99.90;;;;;;4993528;28;19914;-63
2023/03/10 08:33:55;;;;;;;;;;;10.70;99.90;;;;;;4994236;28;19914;-63
2023/03/10 08:36:22;;;;;;;;;;;10.80;99.90;;;;;;4995140;28;19918;-63
2023/03/10 08:38:48;;;;;;;;;;;10.90;99.90;;;;;;4992749;28;19993;-63
2023/03/10 08:41:14;;;;;;;;;;;11.10;99.90;;;;;;4965991;28;19910;-62
2023/03/10 08:43:40;;;;;;;;;;;11.20;99.90;;;;;;4992060;28;19924;-62
2023/03/10 08:46:06;;;;;;;;;;;11.40;99.90;;;;;;4993500;28;19922;-61
2023/03/10 08:48:32;;;;;;;;;;;11.50;99.90;;;;;;4993603;28;19909;-62
2023/03/10 08:50:57;;;;;;;;;;;11.70;99.90;;;;;;4991615;28;19980;-61
2023/03/10 08:53:23;;;;;;;;;;;11.80;99.90;;;;;;4993618;28;20005;-64
2023/03/10 08:55:48;;;;;;;;;;;11.80;99.90;;;;;;4986478;28;19920;-63
2023/03/10 08:58:14;;;;;;;;;;;11.80;99.90;;;;;;4991727;28;19913;-62
2023/03/10 09:00:41;;;;;;;;;;;11.90;99.90;;;;;;4967581;28;19920;-62
2023/03/10 09:03:07;;;;;;;;;;;11.90;99.90;;;;;;4986015;28;19918;-62
2023/03/10 09:05:32;;;;;;;;;;;11.90;99.90;;;;;;4985470;28;19929;-62
2023/03/10 09:07:58;;;;;;;;;;;11.90;99.90;;;;;;4994299;28;19913;-63
2023/03/10 09:10:24;;;;;;;;;;;12.00;99.90;;;;;;4991464;28;20442;-62
2023/03/10 09:12:49;;;;;;;;;;;12.00;99.90;;;;;;4993444;28;20008;-62
2023/03/10 09:15:15;;;;;;;;;;;12.10;99.90;;;;;;4990466;28;19924;-62
2023/03/10 09:17:40;;;;;;;;;;;12.30;99.90;;;;;;4991125;28;19921;-62
2023/03/10 09:20:06;;;;;;;;;;;12.30;99.90;;;;;;4993947;28;19972;-61
2023/03/10 09:22:31;;;;;;;;;;;12.40;99.90;;;;;;4992547;28;19918;-65
2023/03/10 09:24:57;;;;;;;;;;;12.50;99.90;;;;;;4991794;28;19918;-63
2023/03/10 09:27:23;;;;;;;;;;;12.60;99.90;;;;;;4991874;28;19917;-62
2023/03/10 09:29:48;;;;;;;;;;;12.70;99.90;;;;;;4995108;28;20403;-62
2023/03/10 09:32:14;;;;;;;;;;;12.80;99.90;;;;;;4983883;28;19920;-62
2023/03/10 09:34:39;;;;;;;;;;;12.80;99.90;;;;;;4991330;28;19913;-60
2023/03/10 09:37:05;;;;;;;;;;;12.70;99.90;;;;;;4991411;28;19914;-61
2023/03/10 09:39:30;;;;;;;;;;;12.80;99.90;;;;;;4992824;28;19909;-62
2023/03/10 09:42:23;;;;;;;;;;;12.80;99.90;;;;;;4990472;28;20359;-62
2023/03/10 09:44:57;;;;;;;;;;;12.70;99.90;;;;;;4956902;28;19920;-61
2023/03/10 09:47:26;;;;;;;;;;;12.70;99.90;;;;;;4990924;28;19917;-61
2023/03/10 09:49:57;;;;;;;;;;;12.70;99.90;;;;;;4993722;28;19914;-62
2023/03/10 09:52:27;;;;;;;;;;;12.60;99.90;;;;;;4993394;28;19980;-63
2023/03/10 09:54:56;;;;;;;;;;;12.60;99.90;;;;;;4987265;28;20310;-61
2023/03/10 09:57:21;;;;;;;;;;;12.70;99.90;;;;;;4990995;28;19968;-62
2023/03/10 09:59:48;;;;;;;;;;;12.80;99.90;;;;;;4990977;28;19918;-62
2023/03/10 10:02:22;;;;;;;;;;;12.80;99.90;;;;;;4988000;28;19932;-62
2023/03/10 10:04:52;;;;;;;;;;;12.80;99.90;;;;;;4989470;28;19920;-62
2023/03/10 10:07:19;;;;;;;;;;;12.80;99.90;;;;;;4987193;28;19914;-60
2023/03/10 10:09:47;;;;;;;;;;;12.70;99.90;;;;;;4990101;28;19988;-61
2023/03/10 10:12:13;;;;;;;;;;;12.70;99.90;;;;;;4990638;28;20378;-64
2023/03/10 10:14:39;;;;;;;;;;;12.60;99.90;;;;;;4991554;28;19914;-59
2023/03/10 10:17:14;;;;;;;;;;;12.60;99.90;;;;;;4986010;28;20291;-62
2023/03/10 10:19:39;;;;;;;;;;;12.90;99.90;;;;;;4994086;28;19918;-60
2023/03/10 10:22:19;;;;;;;;;;;13.10;99.90;;;;;;4991790;28;19925;-62
2023/03/10 10:25:03;;;;;;;;;;;13.50;99.90;;;;;;4990092;28;19924;-62
2023/03/10 10:27:31;;;;;;;;;;;13.70;99.90;;;;;;4994953;28;19921;-60
2023/03/10 10:29:57;;;;;;;;;;;13.60;99.90;;;;;;4996675;28;20315;-61
2023/03/10 10:32:22;;;;;;;;;;;13.50;99.90;;;;;;4974591;28;19917;-63
2023/03/10 10:34:48;;;;;;;;;;;13.40;99.90;;;;;;4986724;28;20018;-61
2023/03/10 10:37:21;;;;;;;;;;;13.30;99.90;;;;;;4995239;28;20358;-60
2023/03/10 10:39:48;;;;;;;;;;;13.20;99.90;;;;;;4992846;28;19982;-61
2023/03/10 10:42:16;;;;;;;;;;;13.10;99.90;;;;;;4994948;28;20427;-61
2023/03/10 10:44:42;;;;;;;;;;;13.00;99.90;;;;;;4985994;28;19968;-60
2023/03/10 10:47:27;;;;;;;;;;;13.00;99.90;;;;;;4991211;28;19968;-60
2023/03/10 10:49:53;;;;;;;;;;;12.90;99.90;;;;;;4990933;28;19921;-62
2023/03/10 10:52:22;;;;;;;;;;;12.90;99.90;;;;;;4986776;28;19946;-63
2023/03/10 10:54:53;;;;;;;;;;;12.80;99.90;;;;;;4988709;28;19952;-61
2023/03/10 10:57:32;;;;;;;;;;;12.80;99.90;;;;;;4988535;28;20383;-60
2023/03/10 11:00:12;;;;;;;;;;;12.80;99.90;;;;;;4983461;28;20027;-62
2023/03/10 11:02:38;;;;;;;;;;;12.70;99.90;;;;;;4985332;28;19929;-63
2023/03/10 11:05:14;;;;;;;;;;;12.80;99.90;;;;;;4985971;28;19918;-62
2023/03/10 11:07:40;;;;;;;;;;;12.70;99.90;;;;;;4987903;28;19949;-61
2023/03/10 11:10:11;;;;;;;;;;;12.50;99.90;;;;;;4986454;28;20213;-62
2023/03/10 11:12:42;;;;;;;;;;;12.50;99.90;;;;;;4984155;28;19965;-61
2023/03/10 11:15:08;;;;;;;;;;;12.40;99.90;;;;;;4981125;28;19922;-62
2023/03/10 11:17:42;;;;;;;;;;;12.30;99.90;;;;;;4987040;28;20406;-62
2023/03/10 11:20:08;;;;;;;;;;;12.40;99.90;;;;;;4982176;28;19918;-62
2023/03/10 11:22:37;;;;;;;;;;;12.20;99.90;;;;;;4988450;28;19929;-61
2023/03/10 11:25:11;;;;;;;;;;;12.10;99.90;;;;;;4985048;28;20376;-61
2023/03/10 11:27:47;;;;;;;;;;;12.10;99.90;;;;;;4984459;28;19922;-62
2023/03/10 11:30:15;;;;;;;;;;;12.00;99.90;;;;;;4988429;28;20008;-62
2023/03/10 11:32:47;;;;;;;;;;;11.90;99.90;;;;;;4982736;28;19980;-60
2023/03/10 11:35:21;;;;;;;;;;;11.70;99.90;;;;;;4981935;28;19913;-61
2023/03/10 11:37:53;;;;;;;;;;;11.60;99.90;;;;;;4992232;28;20002;-62
2023/03/10 11:40:26;;;;;;;;;;;11.50;99.90;;;;;;4984377;28;20007;-58
2023/03/10 11:43:01;;;;;;;;;;;11.40;99.90;;;;;;4982736;28;19932;-60
2023/03/10 11:45:35;;;;;;;;;;;11.30;99.90;;;;;;4982620;28;21662;-61
2023/03/10 11:48:19;;;;;;;;;;;11.20;99.90;;;;;;4989753;28;19960;-60
2023/03/10 11:50:48;;;;;;;;;;;11.10;99.90;;;;;;4987620;28;19917;-61
2023/03/10 11:53:21;;;;;;;;;;;11.00;99.90;;;;;;4983777;28;19926;-59
2023/03/10 11:55:47;;;;;;;;;;;10.80;99.90;;;;;;4984007;28;20079;-61
2023/03/10 11:58:39;;;;;;;;;;;10.80;99.90;;;;;;4990927;28;19922;-62
2023/03/10 12:01:06;;;;;;;;;;;10.70;99.90;;;;;;4972413;28;19913;-60
2023/03/10 12:03:42;;;;;;;;;;;10.70;99.90;;;;;;4983905;28;19928;-62
2023/03/10 12:06:11;;;;;;;;;;;10.70;99.90;;;;;;4982617;28;20105;-62
2023/03/10 12:08:37;;;;;;;;;;;10.70;99.90;;;;;;4987278;28;19925;-62
2023/03/10 12:11:04;;;;;;;;;;;10.70;99.90;;;;;;4984923;28;19928;-61
2023/03/10 12:13:43;;;;;;;;;;;10.70;99.90;;;;;;4986345;28;19925;-61
2023/03/10 12:16:12;;;;;;;;;;;10.70;99.90;;;;;;4987057;28;19918;-62
2023/03/10 12:18:38;;;;;;;;;;;10.70;99.90;;;;;;4990103;28;19960;-63
2023/03/10 12:21:21;;;;;;;;;;;10.70;99.90;;;;;;4991871;28;19914;-60
2023/03/10 12:23:47;;;;;;;;;;;10.70;99.90;;;;;;4987011;28;20419;-61
2023/03/10 12:26:13;;;;;;;;;;;10.60;99.90;;;;;;4986173;28;20020;-61
2023/03/10 12:28:38;;;;;;;;;;;10.60;99.90;;;;;;4986888;28;20373;-61
2023/03/10 12:31:13;;;;;;;;;;;10.40;99.90;;;;;;4986756;28;20455;-62
2023/03/10 12:33:41;;;;;;;;;;;10.40;99.90;;;;;;4986583;28;20368;-60
2023/03/10 12:36:21;;;;;;;;;;;10.40;99.90;;;;;;4990559;28;20025;-59
2023/03/10 12:38:56;;;;;;;;;;;10.40;99.90;;;;;;4986180;28;19953;-59
2023/03/10 12:41:24;;;;;;;;;;;10.40;99.90;;;;;;4983135;28;19918;-58
2023/03/10 12:43:59;;;;;;;;;;;10.40;99.90;;;;;;4988081;28;19929;-63
2023/03/10 12:46:36;;;;;;;;;;;10.40;99.90;;;;;;4984523;28;20253;-62
2023/03/10 12:49:22;;;;;;;;;;;10.50;99.90;;;;;;4985452;28;19937;-63
2023/03/10 12:52:09;;;;;;;;;;;10.50;99.90;;;;;;4985624;28;19929;-60
2023/03/10 12:54:51;;;;;;;;;;;10.50;99.90;;;;;;4992160;28;19924;-59
2023/03/10 12:57:31;;;;;;;;;;;10.60;99.90;;;;;;4985612;28;20029;-64
2023/03/10 13:00:05;;;;;;;;;;;10.60;99.90;;;;;;4986594;28;19976;-62
2023/03/10 13:02:36;;;;;;;;;;;10.60;99.90;;;;;;4989236;28;19918;-61
2023/03/10 13:05:04;;;;;;;;;;;10.60;99.90;;;;;;4987320;28;19920;-63
2023/03/10 13:07:29;;;;;;;;;;;10.60;99.90;;;;;;4985825;28;20366;-62
2023/03/10 13:09:55;;;;;;;;;;;10.60;99.90;;;;;;4987074;28;20460;-62
2023/03/10 13:12:27;;;;;;;;;;;10.60;99.90;;;;;;4985703;28;19916;-62
2023/03/10 13:14:59;;;;;;;;;;;10.60;99.90;;;;;;4986277;28;19918;-62
2023/03/10 13:17:26;;;;;;;;;;;10.50;99.90;;;;;;4984810;28;19976;-62
2023/03/10 13:19:56;;;;;;;;;;;10.50;99.90;;;;;;4976857;28;20037;-62
2023/03/10 13:22:22;;;;;;;;;;;10.50;99.90;;;;;;4986183;28;20435;-62
2023/03/10 13:24:56;;;;;;;;;;;10.50;99.90;;;;;;4988817;28;19925;-61
2023/03/10 13:27:25;;;;;;;;;;;10.50;99.90;;;;;;4988644;28;19924;-63
2023/03/10 13:29:55;;;;;;;;;;;10.60;99.90;;;;;;4986938;28;19928;-62
2023/03/10 13:32:21;;;;;;;;;;;10.60;99.90;;;;;;4970760;28;19917;-62
2023/03/10 13:34:46;;;;;;;;;;;10.60;99.90;;;;;;4984936;28;20016;-63
2023/03/10 13:37:12;;;;;;;;;;;10.70;99.90;;;;;;4966788;28;19917;-64
2023/03/10 13:39:37;;;;;;;;;;;10.70;99.90;;;;;;4988835;28;19924;-65
2023/03/10 13:42:12;;;;;;;;;;;10.70;99.90;;;;;;4966017;28;20020;-63
2023/03/10 13:44:39;;;;;;;;;;;10.70;99.90;;;;;;4986059;28;19918;-63
2023/03/10 13:47:13;;;;;;;;;;;10.70;99.90;;;;;;4984685;28;19964;-62
2023/03/10 13:49:40;;;;;;;;;;;10.70;99.90;;;;;;4981641;28;19961;-62
2023/03/10 13:52:11;;;;;;;;;;;10.60;99.90;;;;;;4982149;28;19967;-63
2023/03/10 13:54:37;;;;;;;;;;;10.60;99.90;;;;;;4984948;28;19922;-62
2023/03/10 13:57:03;;;;;;;;;;;10.50;99.90;;;;;;4986565;28;19920;-62
2023/03/10 13:59:29;;;;;;;;;;;10.30;99.90;;;;;;4982732;28;19913;-63
2023/03/10 14:01:56;;;;;;;;;;;10.10;99.90;;;;;;4984645;28;19925;-62
2023/03/10 14:04:41;;;;;;;;;;;10.00;99.90;;;;;;4983001;28;19913;-63
2023/03/10 14:07:08;;;;;;;;;;;9.90;99.90;;;;;;4987544;28;19972;-62
2023/03/10 14:09:34;;;;;;;;;;;9.80;99.90;;;;;;4985835;28;19918;-63
2023/03/10 14:11:59;;;;;;;;;;;9.70;99.90;;;;;;4986960;28;19917;-64
2023/03/10 14:14:26;;;;;;;;;;;9.70;99.90;;;;;;4982887;28;19964;-63
2023/03/10 14:16:53;;;;;;;;;;;9.70;99.90;;;;;;4990560;28;19933;-63
2023/03/10 14:19:57;;;;;;;;;;;9.80;99.90;;;;;;4985606;28;20446;-63
2023/03/10 14:22:31;;;;;;;;;;;9.70;99.90;;;;;;4962428;28;19964;-62
2023/03/10 14:24:58;;;;;;;;;;;9.60;99.90;;;;;;4962724;28;19926;-63